KHWY

Warrenton-Fauquier Airport

Warrenton, Virginia, USA
METAR KHWY 201255Z AUTO 00000KT 10SM CLR M07/M10 A3001 RMK AO2 T10661096
Observed Flight Rules
Jan-20 @ 12:55 UTC (17 minutes ago) Visual Flight Rules
Wind Visibility Clouds
Calm 10 miles
  • Clear skies
Temperatures Readings
Current -7°C / 19°F
Dewpoint -10°C / 14°F
Humidity 79%
Altimeter 30.01" Hg
Pressure 1016 hPa
Elevation 103
METAR KHWY 201255Z AUTO 00000KT 10SM CLR M07/M10 A3001 RMK AO2 T10661096
Observed Flight Rules
Jan-20 @ 12:55 UTC
(17 minutes ago)
VFR
Wind Visibility
Calm 10 miles
Clouds
  • Clear skies
Temperature Dewpoint
-7°C / 19°F -10°C / 14°F
Humidity Altimeter Pressure
79% 30.01" Hg 1016 hPa